Terminal Aerodrome Forecast
Issued by NWS

Current Version | Previous Version | Text Only | Print | Product List | Glossary Off
Versions: 1 2 3 4 5 6 7 8 9 10 11 12 13 14 15 16 17 18 19 20 21 22 23

000
FTUS41 KILN 251100
TAFLUK
TAF
KLUK 251122Z 2512/2612 23010KT P6SM BKN022 OVC030
     FM252000 22010KT P6SM OVC035
     FM252200 20003KT P6SM SKC=

USA.gov is the U.S. government's official web portal to all federal, state and local government web resources and services.